sensor_id;sensor_type;location;lat;lon;timestamp;P1;durP1;ratioP1;P2;durP2;ratioP2
15132;SDS011;7667;51.232;17.110;2023-02-11T00:01:27;31.57;;;21.50;;
15132;SDS011;7667;51.232;17.110;2023-02-11T00:04:01;28.90;;;20.47;;
15132;SDS011;7667;51.232;17.110;2023-02-11T00:06:31;34.77;;;22.00;;
15132;SDS011;7667;51.232;17.110;2023-02-11T00:09:00;31.20;;;21.00;;
15132;SDS011;7667;51.232;17.110;2023-02-11T00:11:28;30.47;;;20.63;;
15132;SDS011;7667;51.232;17.110;2023-02-11T00:13:56;29.50;;;19.97;;
15132;SDS011;7667;51.232;17.110;2023-02-11T00:16:26;29.30;;;20.60;;
15132;SDS011;7667;51.232;17.110;2023-02-11T00:18:55;31.93;;;21.17;;
15132;SDS011;7667;51.232;17.110;2023-02-11T00:21:24;30.33;;;20.33;;
15132;SDS011;7667;51.232;17.110;2023-02-11T00:23:53;28.73;;;20.23;;
15132;SDS011;7667;51.232;17.110;2023-02-11T00:26:27;31.37;;;20.83;;
15132;SDS011;7667;51.232;17.110;2023-02-11T00:29:21;34.43;;;21.50;;
15132;SDS011;7667;51.232;17.110;2023-02-11T00:31:49;31.90;;;21.30;;
15132;SDS011;7667;51.232;17.110;2023-02-11T00:34:17;35.57;;;22.10;;
15132;SDS011;7667;51.232;17.110;2023-02-11T00:36:44;31.03;;;21.30;;
15132;SDS011;7667;51.232;17.110;2023-02-11T00:39:12;31.00;;;21.53;;
15132;SDS011;7667;51.232;17.110;2023-02-11T00:41:39;32.00;;;21.37;;
15132;SDS011;7667;51.232;17.110;2023-02-11T00:44:07;32.63;;;21.40;;
15132;SDS011;7667;51.232;17.110;2023-02-11T00:46:34;30.80;;;20.70;;
15132;SDS011;7667;51.232;17.110;2023-02-11T00:49:02;29.93;;;20.80;;
15132;SDS011;7667;51.232;17.110;2023-02-11T00:51:29;30.30;;;20.77;;
15132;SDS011;7667;51.232;17.110;2023-02-11T00:53:57;43.67;;;26.07;;
15132;SDS011;7667;51.232;17.110;2023-02-11T00:56:25;47.27;;;27.73;;
15132;SDS011;7667;51.232;17.110;2023-02-11T00:58:52;35.90;;;22.77;;
15132;SDS011;7667;51.232;17.110;2023-02-11T01:01:20;32.33;;;21.87;;
15132;SDS011;7667;51.232;17.110;2023-02-11T01:03:48;35.70;;;22.47;;
15132;SDS011;7667;51.232;17.110;2023-02-11T01:06:16;31.87;;;21.33;;
15132;SDS011;7667;51.232;17.110;2023-02-11T01:08:44;31.70;;;22.20;;
15132;SDS011;7667;51.232;17.110;2023-02-11T01:11:13;30.30;;;21.43;;
15132;SDS011;7667;51.232;17.110;2023-02-11T01:13:44;33.87;;;22.50;;
15132;SDS011;7667;51.232;17.110;2023-02-11T01:16:14;30.77;;;22.27;;
15132;SDS011;7667;51.232;17.110;2023-02-11T01:18:43;35.73;;;23.53;;
15132;SDS011;7667;51.232;17.110;2023-02-11T01:21:11;36.37;;;23.60;;
15132;SDS011;7667;51.232;17.110;2023-02-11T01:23:38;32.50;;;22.97;;
15132;SDS011;7667;51.232;17.110;2023-02-11T01:26:06;32.60;;;22.93;;
15132;SDS011;7667;51.232;17.110;2023-02-11T01:28:33;32.00;;;23.30;;
15132;SDS011;7667;51.232;17.110;2023-02-11T01:31:01;32.77;;;22.27;;
15132;SDS011;7667;51.232;17.110;2023-02-11T01:33:30;31.80;;;22.67;;
15132;SDS011;7667;51.232;17.110;2023-02-11T01:36:01;32.47;;;23.50;;
15132;SDS011;7667;51.232;17.110;2023-02-11T01:38:30;33.63;;;24.13;;
15132;SDS011;7667;51.232;17.110;2023-02-11T01:41:00;34.00;;;23.37;;
15132;SDS011;7667;51.232;17.110;2023-02-11T01:43:36;35.03;;;25.03;;
15132;SDS011;7667;51.232;17.110;2023-02-11T01:49:11;34.97;;;24.30;;
15132;SDS011;7667;51.232;17.110;2023-02-11T01:51:47;33.03;;;24.00;;
15132;SDS011;7667;51.232;17.110;2023-02-11T01:54:34;33.53;;;24.17;;
15132;SDS011;7667;51.232;17.110;2023-02-11T01:57:26;36.70;;;24.20;;
15132;SDS011;7667;51.232;17.110;2023-02-11T02:02:32;33.57;;;25.00;;
15132;SDS011;7667;51.232;17.110;2023-02-11T02:05:21;32.70;;;23.53;;
15132;SDS011;7667;51.232;17.110;2023-02-11T02:07:55;32.93;;;24.03;;
15132;SDS011;7667;51.232;17.110;2023-02-11T02:10:44;34.70;;;24.23;;
15132;SDS011;7667;51.232;17.110;2023-02-11T02:13:15;30.43;;;22.83;;
15132;SDS011;7667;51.232;17.110;2023-02-11T02:15:44;30.53;;;23.03;;
15132;SDS011;7667;51.232;17.110;2023-02-11T02:27:44;32.83;;;23.97;;
15132;SDS011;7667;51.232;17.110;2023-02-11T02:30:45;32.77;;;23.93;;
15132;SDS011;7667;51.232;17.110;2023-02-11T02:34:01;34.83;;;24.53;;
15132;SDS011;7667;51.232;17.110;2023-02-11T02:36:36;33.63;;;23.57;;
15132;SDS011;7667;51.232;17.110;2023-02-11T02:39:25;32.50;;;23.27;;
15132;SDS011;7667;51.232;17.110;2023-02-11T02:41:56;41.57;;;27.77;;
15132;SDS011;7667;51.232;17.110;2023-02-11T02:44:24;46.80;;;31.03;;
15132;SDS011;7667;51.232;17.110;2023-02-11T02:46:52;35.03;;;24.83;;
15132;SDS011;7667;51.232;17.110;2023-02-11T02:49:19;34.00;;;23.73;;
15132;SDS011;7667;51.232;17.110;2023-02-11T02:52:04;32.17;;;23.13;;
15132;SDS011;7667;51.232;17.110;2023-02-11T03:10:07;32.27;;;23.73;;
15132;SDS011;7667;51.232;17.110;2023-02-11T03:12:26;32.57;;;22.83;;
15132;SDS011;7667;51.232;17.110;2023-02-11T03:14:57;34.10;;;23.13;;
15132;SDS011;7667;51.232;17.110;2023-02-11T03:17:27;30.03;;;21.50;;
15132;SDS011;7667;51.232;17.110;2023-02-11T03:19:59;29.30;;;21.50;;
15132;SDS011;7667;51.232;17.110;2023-02-11T03:22:34;32.07;;;22.20;;
15132;SDS011;7667;51.232;17.110;2023-02-11T03:25:07;31.07;;;22.63;;
15132;SDS011;7667;51.232;17.110;2023-02-11T03:27:40;29.67;;;22.10;;
15132;SDS011;7667;51.232;17.110;2023-02-11T03:30:17;30.73;;;22.10;;
15132;SDS011;7667;51.232;17.110;2023-02-11T03:33:00;31.67;;;22.00;;
15132;SDS011;7667;51.232;17.110;2023-02-11T03:35:36;29.33;;;20.97;;
15132;SDS011;7667;51.232;17.110;2023-02-11T03:38:32;31.13;;;22.07;;
15132;SDS011;7667;51.232;17.110;2023-02-11T03:41:04;28.47;;;21.47;;
15132;SDS011;7667;51.232;17.110;2023-02-11T03:43:37;29.93;;;21.83;;
15132;SDS011;7667;51.232;17.110;2023-02-11T03:46:10;31.17;;;21.87;;
15132;SDS011;7667;51.232;17.110;2023-02-11T03:48:42;29.47;;;21.33;;
15132;SDS011;7667;51.232;17.110;2023-02-11T03:51:15;30.83;;;21.67;;
15132;SDS011;7667;51.232;17.110;2023-02-11T03:53:43;30.40;;;21.37;;
15132;SDS011;7667;51.232;17.110;2023-02-11T03:56:16;29.73;;;21.27;;
15132;SDS011;7667;51.232;17.110;2023-02-11T03:58:47;28.30;;;21.07;;
15132;SDS011;7667;51.232;17.110;2023-02-11T04:01:15;30.63;;;20.53;;
15132;SDS011;7667;51.232;17.110;2023-02-11T04:03:42;32.30;;;21.27;;
15132;SDS011;7667;51.232;17.110;2023-02-11T04:06:10;30.43;;;20.97;;
15132;SDS011;7667;51.232;17.110;2023-02-11T04:08:37;30.53;;;21.83;;
15132;SDS011;7667;51.232;17.110;2023-02-11T04:11:05;31.53;;;21.63;;
15132;SDS011;7667;51.232;17.110;2023-02-11T04:13:32;30.57;;;21.37;;
15132;SDS011;7667;51.232;17.110;2023-02-11T04:16:00;30.63;;;21.40;;
15132;SDS011;7667;51.232;17.110;2023-02-11T04:18:27;31.73;;;22.63;;
15132;SDS011;7667;51.232;17.110;2023-02-11T04:20:55;32.90;;;22.37;;
15132;SDS011;7667;51.232;17.110;2023-02-11T04:23:22;30.13;;;21.40;;
15132;SDS011;7667;51.232;17.110;2023-02-11T04:25:50;32.93;;;21.87;;
15132;SDS011;7667;51.232;17.110;2023-02-11T04:28:17;30.47;;;22.10;;
15132;SDS011;7667;51.232;17.110;2023-02-11T04:30:45;32.00;;;23.43;;
15132;SDS011;7667;51.232;17.110;2023-02-11T04:33:15;30.60;;;21.63;;
15132;SDS011;7667;51.232;17.110;2023-02-11T04:35:43;30.87;;;21.93;;
15132;SDS011;7667;51.232;17.110;2023-02-11T04:38:11;34.97;;;22.73;;
15132;SDS011;7667;51.232;17.110;2023-02-11T04:40:39;37.60;;;24.37;;
15132;SDS011;7667;51.232;17.110;2023-02-11T04:43:06;34.53;;;24.10;;
15132;SDS011;7667;51.232;17.110;2023-02-11T04:45:34;31.93;;;21.80;;
15132;SDS011;7667;51.232;17.110;2023-02-11T04:48:02;32.43;;;23.50;;
15132;SDS011;7667;51.232;17.110;2023-02-11T04:50:30;30.60;;;21.87;;
15132;SDS011;7667;51.232;17.110;2023-02-11T04:52:57;28.57;;;21.00;;
15132;SDS011;7667;51.232;17.110;2023-02-11T04:55:25;29.53;;;21.67;;
15132;SDS011;7667;51.232;17.110;2023-02-11T04:57:52;31.57;;;22.30;;
15132;SDS011;7667;51.232;17.110;2023-02-11T05:00:20;29.50;;;20.50;;
15132;SDS011;7667;51.232;17.110;2023-02-11T05:02:48;32.03;;;22.20;;
15132;SDS011;7667;51.232;17.110;2023-02-11T05:05:16;30.87;;;21.97;;
15132;SDS011;7667;51.232;17.110;2023-02-11T05:07:43;30.70;;;21.53;;
15132;SDS011;7667;51.232;17.110;2023-02-11T05:10:11;31.50;;;21.63;;
15132;SDS011;7667;51.232;17.110;2023-02-11T05:12:38;29.07;;;21.30;;
15132;SDS011;7667;51.232;17.110;2023-02-11T05:15:06;29.53;;;20.40;;
15132;SDS011;7667;51.232;17.110;2023-02-11T05:17:34;29.67;;;20.27;;
15132;SDS011;7667;51.232;17.110;2023-02-11T05:20:01;32.40;;;21.83;;
15132;SDS011;7667;51.232;17.110;2023-02-11T05:22:29;29.50;;;20.57;;
15132;SDS011;7667;51.232;17.110;2023-02-11T05:24:56;29.80;;;20.97;;
15132;SDS011;7667;51.232;17.110;2023-02-11T05:27:24;31.17;;;20.33;;
15132;SDS011;7667;51.232;17.110;2023-02-11T05:29:51;27.40;;;20.60;;
15132;SDS011;7667;51.232;17.110;2023-02-11T05:32:19;29.17;;;21.40;;
15132;SDS011;7667;51.232;17.110;2023-02-11T05:34:46;29.87;;;19.90;;
15132;SDS011;7667;51.232;17.110;2023-02-11T05:37:14;28.20;;;19.97;;
15132;SDS011;7667;51.232;17.110;2023-02-11T05:39:41;26.67;;;20.23;;
15132;SDS011;7667;51.232;17.110;2023-02-11T05:42:09;29.43;;;20.17;;
15132;SDS011;7667;51.232;17.110;2023-02-11T05:44:37;27.00;;;19.00;;
15132;SDS011;7667;51.232;17.110;2023-02-11T05:47:04;26.00;;;19.63;;
15132;SDS011;7667;51.232;17.110;2023-02-11T05:49:34;27.40;;;20.40;;
15132;SDS011;7667;51.232;17.110;2023-02-11T05:52:02;25.97;;;19.33;;
15132;SDS011;7667;51.232;17.110;2023-02-11T05:54:29;28.93;;;19.67;;
15132;SDS011;7667;51.232;17.110;2023-02-11T05:56:57;26.17;;;18.80;;
15132;SDS011;7667;51.232;17.110;2023-02-11T05:59:24;27.27;;;19.23;;
15132;SDS011;7667;51.232;17.110;2023-02-11T06:01:52;25.93;;;18.20;;
15132;SDS011;7667;51.232;17.110;2023-02-11T06:04:19;25.70;;;19.43;;
15132;SDS011;7667;51.232;17.110;2023-02-11T06:06:47;27.83;;;19.67;;
15132;SDS011;7667;51.232;17.110;2023-02-11T06:09:14;26.90;;;18.50;;
15132;SDS011;7667;51.232;17.110;2023-02-11T06:11:42;26.07;;;18.93;;
15132;SDS011;7667;51.232;17.110;2023-02-11T06:14:09;31.17;;;19.50;;
15132;SDS011;7667;51.232;17.110;2023-02-11T06:16:37;27.03;;;18.30;;
15132;SDS011;7667;51.232;17.110;2023-02-11T06:19:05;30.17;;;19.37;;
15132;SDS011;7667;51.232;17.110;2023-02-11T06:21:32;26.47;;;19.13;;
15132;SDS011;7667;51.232;17.110;2023-02-11T06:24:09;25.73;;;19.30;;
15132;SDS011;7667;51.232;17.110;2023-02-11T06:26:38;27.43;;;19.97;;
15132;SDS011;7667;51.232;17.110;2023-02-11T06:29:05;28.73;;;20.37;;
15132;SDS011;7667;51.232;17.110;2023-02-11T06:31:33;29.23;;;20.57;;
15132;SDS011;7667;51.232;17.110;2023-02-11T06:34:03;34.30;;;21.03;;
15132;SDS011;7667;51.232;17.110;2023-02-11T06:36:30;27.90;;;20.50;;
15132;SDS011;7667;51.232;17.110;2023-02-11T06:38:58;26.67;;;19.47;;
15132;SDS011;7667;51.232;17.110;2023-02-11T06:41:25;26.13;;;19.77;;
15132;SDS011;7667;51.232;17.110;2023-02-11T06:43:53;28.67;;;20.00;;
15132;SDS011;7667;51.232;17.110;2023-02-11T06:46:21;30.97;;;21.47;;
15132;SDS011;7667;51.232;17.110;2023-02-11T06:48:48;31.93;;;22.67;;
15132;SDS011;7667;51.232;17.110;2023-02-11T06:51:16;29.93;;;21.63;;
15132;SDS011;7667;51.232;17.110;2023-02-11T06:53:44;31.03;;;20.77;;
15132;SDS011;7667;51.232;17.110;2023-02-11T06:56:13;29.80;;;21.40;;
15132;SDS011;7667;51.232;17.110;2023-02-11T06:58:44;30.13;;;20.93;;
15132;SDS011;7667;51.232;17.110;2023-02-11T07:01:14;29.13;;;21.60;;
15132;SDS011;7667;51.232;17.110;2023-02-11T07:03:42;32.40;;;21.53;;
15132;SDS011;7667;51.232;17.110;2023-02-11T07:06:13;28.87;;;20.47;;
15132;SDS011;7667;51.232;17.110;2023-02-11T07:08:50;26.73;;;19.90;;
15132;SDS011;7667;51.232;17.110;2023-02-11T07:27:03;40.83;;;27.10;;
15132;SDS011;7667;51.232;17.110;2023-02-11T07:29:31;36.20;;;24.00;;
15132;SDS011;7667;51.232;17.110;2023-02-11T07:31:58;31.80;;;22.63;;
15132;SDS011;7667;51.232;17.110;2023-02-11T07:34:26;31.03;;;20.20;;
15132;SDS011;7667;51.232;17.110;2023-02-11T07:36:53;26.43;;;18.23;;
15132;SDS011;7667;51.232;17.110;2023-02-11T07:39:21;28.57;;;20.00;;
15132;SDS011;7667;51.232;17.110;2023-02-11T07:41:53;28.07;;;19.23;;
15132;SDS011;7667;51.232;17.110;2023-02-11T07:44:20;27.90;;;19.27;;
15132;SDS011;7667;51.232;17.110;2023-02-11T07:46:48;27.93;;;19.73;;
15132;SDS011;7667;51.232;17.110;2023-02-11T07:49:16;27.10;;;18.53;;
15132;SDS011;7667;51.232;17.110;2023-02-11T07:51:43;27.30;;;18.60;;
15132;SDS011;7667;51.232;17.110;2023-02-11T07:54:11;27.43;;;17.77;;
15132;SDS011;7667;51.232;17.110;2023-02-11T07:56:39;27.67;;;18.30;;
15132;SDS011;7667;51.232;17.110;2023-02-11T07:59:06;26.27;;;19.00;;
15132;SDS011;7667;51.232;17.110;2023-02-11T08:01:34;28.23;;;19.10;;
15132;SDS011;7667;51.232;17.110;2023-02-11T08:04:02;25.93;;;18.30;;
15132;SDS011;7667;51.232;17.110;2023-02-11T08:06:31;26.50;;;17.93;;
15132;SDS011;7667;51.232;17.110;2023-02-11T08:09:04;26.03;;;19.37;;
15132;SDS011;7667;51.232;17.110;2023-02-11T08:11:34;28.43;;;20.20;;
15132;SDS011;7667;51.232;17.110;2023-02-11T08:14:02;28.07;;;19.33;;
15132;SDS011;7667;51.232;17.110;2023-02-11T08:16:31;26.53;;;19.20;;
15132;SDS011;7667;51.232;17.110;2023-02-11T08:19:09;27.57;;;19.20;;
15132;SDS011;7667;51.232;17.110;2023-02-11T08:21:40;26.23;;;19.07;;
15132;SDS011;7667;51.232;17.110;2023-02-11T08:24:08;26.80;;;19.23;;
15132;SDS011;7667;51.232;17.110;2023-02-11T08:26:36;31.43;;;20.30;;
15132;SDS011;7667;51.232;17.110;2023-02-11T08:29:06;26.03;;;19.63;;
15132;SDS011;7667;51.232;17.110;2023-02-11T08:31:38;26.60;;;18.27;;
15132;SDS011;7667;51.232;17.110;2023-02-11T08:34:09;27.57;;;19.67;;
15132;SDS011;7667;51.232;17.110;2023-02-11T08:36:40;27.60;;;19.60;;
15132;SDS011;7667;51.232;17.110;2023-02-11T08:39:13;34.10;;;22.13;;
15132;SDS011;7667;51.232;17.110;2023-02-11T08:41:52;29.00;;;21.00;;
15132;SDS011;7667;51.232;17.110;2023-02-11T08:44:22;28.73;;;20.33;;
15132;SDS011;7667;51.232;17.110;2023-02-11T08:46:50;26.13;;;20.10;;
15132;SDS011;7667;51.232;17.110;2023-02-11T08:49:18;29.33;;;20.17;;
15132;SDS011;7667;51.232;17.110;2023-02-11T08:51:46;30.40;;;20.67;;
15132;SDS011;7667;51.232;17.110;2023-02-11T08:54:15;27.90;;;19.97;;
15132;SDS011;7667;51.232;17.110;2023-02-11T08:56:42;29.27;;;21.40;;
15132;SDS011;7667;51.232;17.110;2023-02-11T08:59:13;30.87;;;21.07;;
15132;SDS011;7667;51.232;17.110;2023-02-11T09:01:44;29.43;;;21.70;;
15132;SDS011;7667;51.232;17.110;2023-02-11T09:04:13;28.67;;;20.73;;
15132;SDS011;7667;51.232;17.110;2023-02-11T09:06:44;31.47;;;21.23;;
15132;SDS011;7667;51.232;17.110;2023-02-11T09:09:12;30.43;;;20.97;;
15132;SDS011;7667;51.232;17.110;2023-02-11T09:11:42;31.00;;;20.63;;
15132;SDS011;7667;51.232;17.110;2023-02-11T09:14:18;31.57;;;21.80;;
15132;SDS011;7667;51.232;17.110;2023-02-11T09:16:47;33.23;;;21.87;;
15132;SDS011;7667;51.232;17.110;2023-02-11T09:19:16;29.90;;;21.60;;
15132;SDS011;7667;51.232;17.110;2023-02-11T09:21:44;31.20;;;22.97;;
15132;SDS011;7667;51.232;17.110;2023-02-11T09:24:12;31.57;;;22.07;;
15132;SDS011;7667;51.232;17.110;2023-02-11T09:26:40;30.27;;;22.67;;
15132;SDS011;7667;51.232;17.110;2023-02-11T09:29:09;29.77;;;21.50;;
15132;SDS011;7667;51.232;17.110;2023-02-11T09:31:37;32.20;;;21.60;;
15132;SDS011;7667;51.232;17.110;2023-02-11T09:34:04;30.10;;;20.50;;
15132;SDS011;7667;51.232;17.110;2023-02-11T09:36:34;29.40;;;21.70;;
15132;SDS011;7667;51.232;17.110;2023-02-11T09:39:05;27.97;;;20.43;;
15132;SDS011;7667;51.232;17.110;2023-02-11T09:44:47;27.47;;;20.00;;
15132;SDS011;7667;51.232;17.110;2023-02-11T09:47:25;28.03;;;19.70;;
15132;SDS011;7667;51.232;17.110;2023-02-11T09:50:04;27.67;;;20.13;;
15132;SDS011;7667;51.232;17.110;2023-02-11T09:52:41;25.77;;;20.07;;
15132;SDS011;7667;51.232;17.110;2023-02-11T09:55:25;26.60;;;19.60;;
15132;SDS011;7667;51.232;17.110;2023-02-11T09:58:02;26.37;;;19.20;;
15132;SDS011;7667;51.232;17.110;2023-02-11T10:06:53;25.00;;;19.93;;
15132;SDS011;7667;51.232;17.110;2023-02-11T10:09:39;27.67;;;18.63;;
15132;SDS011;7667;51.232;17.110;2023-02-11T10:18:53;24.57;;;18.43;;
15132;SDS011;7667;51.232;17.110;2023-02-11T10:24:38;24.23;;;17.47;;
15132;SDS011;7667;51.232;17.110;2023-02-11T10:27:15;26.03;;;18.07;;
15132;SDS011;7667;51.232;17.110;2023-02-11T10:29:53;25.13;;;17.77;;
15132;SDS011;7667;51.232;17.110;2023-02-11T10:32:42;23.57;;;17.20;;
15132;SDS011;7667;51.232;17.110;2023-02-11T10:35:15;24.27;;;17.27;;
15132;SDS011;7667;51.232;17.110;2023-02-11T10:37:50;21.43;;;16.97;;
15132;SDS011;7667;51.232;17.110;2023-02-11T10:40:18;25.37;;;17.07;;
15132;SDS011;7667;51.232;17.110;2023-02-11T10:42:56;24.03;;;17.50;;
15132;SDS011;7667;51.232;17.110;2023-02-11T10:51:28;24.23;;;18.43;;
15132;SDS011;7667;51.232;17.110;2023-02-11T10:56:30;27.33;;;18.30;;
15132;SDS011;7667;51.232;17.110;2023-02-11T10:59:03;26.03;;;19.03;;
15132;SDS011;7667;51.232;17.110;2023-02-11T11:01:51;25.43;;;17.33;;
15132;SDS011;7667;51.232;17.110;2023-02-11T11:09:50;27.37;;;18.67;;
15132;SDS011;7667;51.232;17.110;2023-02-11T11:12:35;26.87;;;18.37;;
15132;SDS011;7667;51.232;17.110;2023-02-11T11:15:15;27.30;;;18.47;;
15132;SDS011;7667;51.232;17.110;2023-02-11T11:23:26;28.83;;;18.67;;
15132;SDS011;7667;51.232;17.110;2023-02-11T11:28:39;29.03;;;19.80;;
15132;SDS011;7667;51.232;17.110;2023-02-11T11:31:29;28.20;;;19.50;;
15132;SDS011;7667;51.232;17.110;2023-02-11T11:34:13;26.50;;;18.63;;
15132;SDS011;7667;51.232;17.110;2023-02-11T11:36:58;26.47;;;18.03;;
15132;SDS011;7667;51.232;17.110;2023-02-11T11:39:35;26.73;;;18.37;;
15132;SDS011;7667;51.232;17.110;2023-02-11T11:42:04;27.03;;;19.13;;
15132;SDS011;7667;51.232;17.110;2023-02-11T11:44:55;27.77;;;20.17;;
15132;SDS011;7667;51.232;17.110;2023-02-11T11:50:52;25.87;;;19.27;;
15132;SDS011;7667;51.232;17.110;2023-02-11T11:53:30;26.70;;;19.67;;
15132;SDS011;7667;51.232;17.110;2023-02-11T11:56:13;27.00;;;18.70;;
15132;SDS011;7667;51.232;17.110;2023-02-11T11:59:30;25.53;;;19.10;;
15132;SDS011;7667;51.232;17.110;2023-02-11T12:05:16;27.63;;;19.80;;
15132;SDS011;7667;51.232;17.110;2023-02-11T12:14:16;28.80;;;20.97;;
15132;SDS011;7667;51.232;17.110;2023-02-11T12:27:12;27.10;;;18.53;;
15132;SDS011;7667;51.232;17.110;2023-02-11T12:30:34;28.60;;;18.37;;
15132;SDS011;7667;51.232;17.110;2023-02-11T12:33:46;27.57;;;18.70;;
15132;SDS011;7667;51.232;17.110;2023-02-11T12:45:33;25.80;;;18.97;;
15132;SDS011;7667;51.232;17.110;2023-02-11T12:57:58;24.53;;;17.17;;
15132;SDS011;7667;51.232;17.110;2023-02-11T13:03:14;26.30;;;18.03;;
15132;SDS011;7667;51.232;17.110;2023-02-11T13:05:53;23.97;;;17.30;;
15132;SDS011;7667;51.232;17.110;2023-02-11T13:08:32;21.10;;;16.53;;
15132;SDS011;7667;51.232;17.110;2023-02-11T13:11:07;27.77;;;17.67;;
15132;SDS011;7667;51.232;17.110;2023-02-11T13:19:20;26.23;;;20.07;;
15132;SDS011;7667;51.232;17.110;2023-02-11T13:24:32;24.23;;;17.60;;
15132;SDS011;7667;51.232;17.110;2023-02-11T13:33:02;25.87;;;16.37;;
15132;SDS011;7667;51.232;17.110;2023-02-11T13:35:44;26.77;;;17.33;;
15132;SDS011;7667;51.232;17.110;2023-02-11T13:38:26;22.53;;;16.70;;
15132;SDS011;7667;51.232;17.110;2023-02-11T13:52:26;24.53;;;17.00;;
15132;SDS011;7667;51.232;17.110;2023-02-11T13:55:02;23.57;;;17.00;;
15132;SDS011;7667;51.232;17.110;2023-02-11T13:58:32;23.43;;;16.33;;
15132;SDS011;7667;51.232;17.110;2023-02-11T14:11:42;21.53;;;16.30;;
15132;SDS011;7667;51.232;17.110;2023-02-11T14:19:37;22.30;;;14.63;;
15132;SDS011;7667;51.232;17.110;2023-02-11T14:22:12;22.73;;;15.13;;
15132;SDS011;7667;51.232;17.110;2023-02-11T14:24:58;24.83;;;15.93;;
15132;SDS011;7667;51.232;17.110;2023-02-11T14:27:34;20.20;;;15.13;;
15132;SDS011;7667;51.232;17.110;2023-02-11T14:34:13;24.40;;;15.93;;
15132;SDS011;7667;51.232;17.110;2023-02-11T14:36:40;24.60;;;15.53;;
15132;SDS011;7667;51.232;17.110;2023-02-11T14:39:36;20.10;;;14.83;;
15132;SDS011;7667;51.232;17.110;2023-02-11T14:42:41;19.97;;;14.87;;
15132;SDS011;7667;51.232;17.110;2023-02-11T14:45:10;21.13;;;14.80;;
15132;SDS011;7667;51.232;17.110;2023-02-11T14:47:49;18.60;;;14.37;;
15132;SDS011;7667;51.232;17.110;2023-02-11T14:51:00;22.23;;;15.43;;
15132;SDS011;7667;51.232;17.110;2023-02-11T14:53:51;22.40;;;15.07;;
15132;SDS011;7667;51.232;17.110;2023-02-11T14:56:42;20.90;;;15.03;;
15132;SDS011;7667;51.232;17.110;2023-02-11T14:59:19;21.97;;;15.13;;
15132;SDS011;7667;51.232;17.110;2023-02-11T15:01:49;24.30;;;15.87;;
15132;SDS011;7667;51.232;17.110;2023-02-11T15:04:29;24.83;;;15.40;;
15132;SDS011;7667;51.232;17.110;2023-02-11T15:07:05;21.07;;;15.50;;
15132;SDS011;7667;51.232;17.110;2023-02-11T15:09:37;23.53;;;16.83;;
15132;SDS011;7667;51.232;17.110;2023-02-11T15:12:18;24.50;;;17.20;;
15132;SDS011;7667;51.232;17.110;2023-02-11T15:14:55;24.57;;;17.63;;
15132;SDS011;7667;51.232;17.110;2023-02-11T15:17:26;23.23;;;16.47;;
15132;SDS011;7667;51.232;17.110;2023-02-11T15:19:59;22.20;;;16.77;;
15132;SDS011;7667;51.232;17.110;2023-02-11T15:22:28;23.17;;;17.10;;
15132;SDS011;7667;51.232;17.110;2023-02-11T15:25:00;22.43;;;15.80;;
15132;SDS011;7667;51.232;17.110;2023-02-11T15:27:42;21.73;;;16.07;;
15132;SDS011;7667;51.232;17.110;2023-02-11T15:32:47;21.10;;;16.60;;
15132;SDS011;7667;51.232;17.110;2023-02-11T15:35:17;22.13;;;16.33;;
15132;SDS011;7667;51.232;17.110;2023-02-11T15:37:45;23.17;;;16.53;;
15132;SDS011;7667;51.232;17.110;2023-02-11T15:40:17;22.87;;;17.30;;
15132;SDS011;7667;51.232;17.110;2023-02-11T15:42:52;21.40;;;17.20;;
15132;SDS011;7667;51.232;17.110;2023-02-11T15:45:25;21.70;;;16.37;;
15132;SDS011;7667;51.232;17.110;2023-02-11T15:50:40;22.03;;;16.20;;
15132;SDS011;7667;51.232;17.110;2023-02-11T15:58:43;22.37;;;17.10;;
15132;SDS011;7667;51.232;17.110;2023-02-11T16:01:13;24.80;;;16.67;;
15132;SDS011;7667;51.232;17.110;2023-02-11T16:03:42;23.80;;;16.60;;
15132;SDS011;7667;51.232;17.110;2023-02-11T16:06:17;22.17;;;17.80;;
15132;SDS011;7667;51.232;17.110;2023-02-11T16:08:55;24.10;;;16.93;;
15132;SDS011;7667;51.232;17.110;2023-02-11T16:11:32;22.20;;;16.63;;
15132;SDS011;7667;51.232;17.110;2023-02-11T16:14:18;21.57;;;16.83;;
15132;SDS011;7667;51.232;17.110;2023-02-11T16:17:06;21.57;;;17.13;;
15132;SDS011;7667;51.232;17.110;2023-02-11T16:19:54;25.00;;;17.37;;
15132;SDS011;7667;51.232;17.110;2023-02-11T16:22:26;24.87;;;18.60;;
15132;SDS011;7667;51.232;17.110;2023-02-11T16:24:56;23.97;;;17.40;;
15132;SDS011;7667;51.232;17.110;2023-02-11T16:27:26;24.13;;;17.60;;
15132;SDS011;7667;51.232;17.110;2023-02-11T16:30:01;24.13;;;17.40;;
15132;SDS011;7667;51.232;17.110;2023-02-11T16:32:29;23.37;;;16.83;;
15132;SDS011;7667;51.232;17.110;2023-02-11T16:34:58;23.10;;;17.27;;
15132;SDS011;7667;51.232;17.110;2023-02-11T16:37:29;21.23;;;16.47;;
15132;SDS011;7667;51.232;17.110;2023-02-11T16:39:57;21.57;;;16.03;;
15132;SDS011;7667;51.232;17.110;2023-02-11T16:42:25;22.70;;;17.13;;
15132;SDS011;7667;51.232;17.110;2023-02-11T16:44:52;23.77;;;16.77;;
15132;SDS011;7667;51.232;17.110;2023-02-11T16:47:24;21.57;;;16.33;;
15132;SDS011;7667;51.232;17.110;2023-02-11T16:49:54;20.33;;;16.37;;
15132;SDS011;7667;51.232;17.110;2023-02-11T16:52:22;23.10;;;16.50;;
15132;SDS011;7667;51.232;17.110;2023-02-11T16:54:51;21.33;;;15.93;;
15132;SDS011;7667;51.232;17.110;2023-02-11T16:57:20;19.23;;;15.70;;
15132;SDS011;7667;51.232;17.110;2023-02-11T16:59:51;21.40;;;17.23;;
15132;SDS011;7667;51.232;17.110;2023-02-11T17:02:20;32.57;;;24.37;;
15132;SDS011;7667;51.232;17.110;2023-02-11T17:04:53;21.33;;;17.80;;
15132;SDS011;7667;51.232;17.110;2023-02-11T17:07:24;19.53;;;15.83;;
15132;SDS011;7667;51.232;17.110;2023-02-11T17:09:52;19.57;;;15.13;;
15132;SDS011;7667;51.232;17.110;2023-02-11T17:12:20;22.37;;;17.67;;
15132;SDS011;7667;51.232;17.110;2023-02-11T17:14:51;18.50;;;14.90;;
15132;SDS011;7667;51.232;17.110;2023-02-11T17:17:19;20.87;;;16.13;;
15132;SDS011;7667;51.232;17.110;2023-02-11T17:19:49;17.77;;;14.00;;
15132;SDS011;7667;51.232;17.110;2023-02-11T17:22:16;16.47;;;12.80;;
15132;SDS011;7667;51.232;17.110;2023-02-11T17:24:44;15.70;;;13.17;;
15132;SDS011;7667;51.232;17.110;2023-02-11T17:27:12;17.23;;;13.77;;
15132;SDS011;7667;51.232;17.110;2023-02-11T17:29:39;17.40;;;15.07;;
15132;SDS011;7667;51.232;17.110;2023-02-11T17:32:07;17.07;;;14.00;;
15132;SDS011;7667;51.232;17.110;2023-02-11T17:34:35;17.60;;;14.10;;
15132;SDS011;7667;51.232;17.110;2023-02-11T17:37:02;18.20;;;16.00;;
15132;SDS011;7667;51.232;17.110;2023-02-11T17:39:35;15.93;;;12.97;;
15132;SDS011;7667;51.232;17.110;2023-02-11T17:42:06;15.80;;;12.90;;
15132;SDS011;7667;51.232;17.110;2023-02-11T17:44:34;15.30;;;12.73;;
15132;SDS011;7667;51.232;17.110;2023-02-11T17:47:02;14.37;;;12.53;;
15132;SDS011;7667;51.232;17.110;2023-02-11T17:49:29;16.23;;;13.40;;
15132;SDS011;7667;51.232;17.110;2023-02-11T17:51:57;17.90;;;13.37;;
15132;SDS011;7667;51.232;17.110;2023-02-11T17:54:24;15.30;;;12.60;;
15132;SDS011;7667;51.232;17.110;2023-02-11T17:56:52;16.60;;;13.23;;
15132;SDS011;7667;51.232;17.110;2023-02-11T17:59:23;14.80;;;12.60;;
15132;SDS011;7667;51.232;17.110;2023-02-11T18:01:51;17.20;;;13.60;;